KLFI Informações do Aeroporto

Informações da Pista
Pista 08 Comprimento 10000 ft Largura 150 ft
Elevação 9 ft Limite ft Heading 68
Pista 26 Comprimento 10000 ft Largura 150 ft
Elevação 8 ft Limite ft Heading 248
Frequências do Aeroporto
Tipo A/D Nome NORFOLK AP Frequência 124.9 MHZ
Tipo ATIS Nome ATIS Frequência 27.01 MHZ
Tipo CLD Nome CLNC DEL Frequência 118.85 MHZ
Tipo GND Nome GND Frequência 121.7 MHZ
Tipo OPS Nome NASA OPS Frequência 123.375 MHZ
Tipo PMSV Nome PMSV METRO Frequência 23.98 MHZ
Tipo POST Nome CNSOLIDATE Frequência 25.125 MHZ
Tipo PTD Nome PTD Frequência 141.75 MHZ
Tipo TWR Nome TWR Frequência 125 MHZ
Navaids do Aeroporto
Tipo TACAN Nome Langley Frequência 112300 KHZ
Informações meteorológicas do aeroporto e NOTAM
ADDS - METARS form results

(2327 UTC 03 July 2022)
Data provider http://aviationweather.gov/metar/data/
 
METAR text: KLFI 032256Z AUTO 03014KT 9SM CLR 28/25 A3001 RMK AO2 SLP169 T02800254 $
Conditions at: KLFI (LANGLEY AFB/HAMP, VA, US) observed 2256 UTC 03 July 2022
Temperature: 28.0°C (82°F)
Dewpoint: 25.4°C (78°F) [RH = 86%]
Pressure (altimeter): 30.01 inches Hg (1016.3 mb)
[Sea-level pressure: 1016.9 mb]
Winds: from the NNE (30 degrees) at 16 MPH (14 knots; 7.2 m/s)
Visibility: 9 miles (14 km)
Ceiling: at least 12,000 feet AGL
Clouds: sky clear below 12,000 feet AGL
Weather:
SOME DATA ABOVE MAY BE INACCURATE!!!
"$" is an indication the sensor requires maintenance